Latest Weather Observations for Kingfish B

IDV60801

Issued at 7:31 am EDT Wednesday 1 April 2015 (issued every 30 minutes, with the page automatically refreshed every 10 minutes)

About weather observations | Map of weather stations | Latest weather observations for VIC | Other Formats
Station Details ID: 400139 Name: KINGFISH B (PLATFORM) Lat: -38.60 Lon: 148.19 Height: 31.4 m
Data from the previous 72 hours. | See also: Recent months for locations in Victoria
Date/Time
EDT
Temp
°C
App
Temp
°C
Dew
Point
Rel
Hum
%
Delta-T
°C
Wind Press
QNH
hPa
Press
MSL
hPa
Rain
since 9 am
mm
Dir
 
Spd
km/h
Gust
km/h
Spd
kts
Gust
kts
01/07:30am 17.3 17.7 16.3 94 0.6 NW 9 13 5 7 1019.7 - -
01/07:20am 17.4 18.2 16.4 94 0.6 NW 7 9 4 5 1019.6 - -
01/07:10am 17.6 18.5 16.5 93 0.7 NW 7 11 4 6 1019.6 - -
01/07:00am 17.6 17.7 16.5 93 0.7 NW 11 13 6 7 1019.7 - -
01/06:50am 17.6 17.3 16.5 93 0.7 NW 13 19 7 10 1019.7 - -
01/06:40am 17.7 17.1 16.6 93 0.7 NW 15 17 8 9 1019.7 - -
01/06:30am 17.7 16.7 16.5 93 0.7 NW 17 20 9 11 1019.7 - -
01/06:20am 17.7 17.0 16.4 92 0.8 NW 15 19 8 10 1019.7 - -
01/06:10am 17.7 17.0 16.4 92 0.8 NW 15 20 8 11 1019.7 - -
01/06:00am 17.7 16.6 16.3 91 0.8 NW 17 20 9 11 1019.8 - -
01/05:50am 17.8 16.7 16.3 91 0.9 NW 17 20 9 11 1019.8 - -
01/05:40am 18.2 17.2 16.6 90 1.0 NW 17 20 9 11 1019.8 - -
01/05:30am 18.4 17.5 16.8 90 1.0 NW 17 20 9 11 1019.8 - -
01/05:20am 18.7 18.2 16.9 89 1.1 NNW 15 17 8 9 1019.8 - -
01/05:10am 18.9 18.9 17.1 89 1.1 N 13 17 7 9 1019.9 - -
01/05:00am 18.8 19.1 16.9 89 1.1 N 11 13 6 7 1020.0 - -
01/04:50am 18.9 19.2 17.0 89 1.2 NNE 11 13 6 7 1020.1 - -
01/04:40am 19.0 19.0 17.1 89 1.2 NNE 13 13 7 7 1020.3 - -
01/04:30am 19.1 19.1 17.2 89 1.2 NNE 13 15 7 8 1020.3 - -
01/04:20am 19.2 19.6 17.3 89 1.2 NNE 11 13 6 7 1020.4 - -
01/04:10am 19.2 19.6 17.3 89 1.2 NE 11 13 6 7 1020.6 - -
01/04:00am 19.3 19.8 17.4 89 1.2 NE 11 13 6 7 1020.7 - -
01/03:50am 19.5 20.1 17.6 89 1.2 NE 11 13 6 7 1021.0 - -
01/03:40am 19.5 20.1 17.6 89 1.2 NE 11 13 6 7 1021.2 - -
01/03:30am 19.5 20.4 17.6 89 1.2 NE 9 11 5 6 1021.3 - -
01/03:20am 19.4 20.7 17.5 89 1.2 NE 7 9 4 5 1021.4 - -
01/03:10am 19.3 20.5 17.4 89 1.2 NE 7 9 4 5 1021.5 - -
01/03:00am 19.3 20.7 17.4 89 1.2 NE 6 9 3 5 1021.7 - -
01/02:50am 19.2 20.6 17.4 89 1.1 NE 6 9 3 5 1021.9 - -
01/02:40am 19.3 20.6 17.5 89 1.1 NE 7 9 4 5 1021.9 - -
01/02:30am 19.3 20.2 17.6 90 1.0 NE 9 11 5 6 1021.9 - -
01/02:20am 19.3 20.3 17.7 90 1.0 NE 9 11 5 6 1022.0 - -
01/02:10am 19.3 20.7 17.8 91 0.9 NE 7 9 4 5 1022.1 - -
01/02:00am 19.3 21.3 17.8 91 0.9 NE 4 7 2 4 1022.3 - -
01/01:30am 19.3 21.7 17.9 92 0.9 ENE 2 4 1 2 1022.8 - -
01/01:20am 19.3 21.7 18.0 92 0.8 ENE 2 4 1 2 1022.9 - -
01/01:10am 19.4 21.5 18.2 93 0.7 ENE 4 4 2 2 1023.0 - -
01/01:00am 19.6 21.8 18.4 93 0.7 ENE 4 6 2 3 1023.1 - -
01/12:50am 19.7 22.0 18.5 93 0.7 E 4 6 2 3 1023.1 - -
01/12:40am 19.7 21.5 18.4 92 0.8 E 6 7 3 4 1023.2 - -
01/12:30am 19.8 21.7 18.5 92 0.8 ESE 6 6 3 3 1023.3 - -
01/12:20am 19.8 21.6 18.4 92 0.9 E 6 7 3 4 1023.3 - -
 
Date/Time
EDT
Temp
°C
App
Temp
°C
Dew
Point
Rel
Hum
%
Delta-T
°C
Wind Press
QNH
hPa
Press
MSL
hPa
Rain
since 9 am
mm
Dir
 
Spd
km/h
Gust
km/h
Spd
kts
Gust
kts
31/11:30pm 19.6 20.7 18.1 91 0.9 E 9 9 5 5 1023.2 - -
31/11:20pm 19.6 20.7 18.0 90 1.0 E 9 11 5 6 1023.3 - -
31/11:10pm 19.6 20.7 18.0 90 1.0 E 9 11 5 6 1023.3 - -
31/11:00pm 19.6 20.7 18.0 90 1.0 E 9 11 5 6 1023.3 - -
31/10:50pm 19.6 20.7 17.9 90 1.0 E 9 11 5 6 1023.3 - -
31/10:40pm 19.6 20.6 17.8 89 1.1 E 9 13 5 7 1023.3 - -
31/10:30pm 19.6 20.6 17.7 89 1.2 E 9 11 5 6 1023.3 - -
31/10:20pm 19.6 20.2 17.6 88 1.2 E 11 13 6 7 1023.4 - -
31/10:10pm 19.5 19.6 17.5 88 1.2 E 13 17 7 9 1023.3 - -
31/10:00pm 19.5 19.2 17.4 88 1.3 ENE 15 17 8 9 1023.2 - -
31/09:50pm 19.5 19.2 17.3 87 1.3 E 15 19 8 10 1023.3 - -
31/09:40pm 19.4 19.0 17.2 87 1.3 E 15 19 8 10 1023.2 - -
31/09:30pm 19.4 18.6 17.1 86 1.4 E 17 20 9 11 1023.2 - -
31/09:20pm 19.4 18.6 17.0 86 1.5 E 17 20 9 11 1023.2 - -
31/09:10pm 19.3 18.0 16.9 86 1.5 ENE 19 22 10 12 1023.1 - -
31/09:00pm 19.3 18.0 16.7 85 1.6 ENE 19 22 10 12 1023.1 - -
31/08:50pm 19.3 17.7 16.6 84 1.6 ENE 20 24 11 13 1023.0 - -
31/08:40pm 19.2 17.6 16.5 84 1.6 ENE 20 22 11 12 1022.9 - -
31/08:30pm 19.2 17.6 16.4 84 1.7 ENE 20 24 11 13 1022.8 - -
31/08:20pm 19.1 17.0 16.3 84 1.7 ENE 22 24 12 13 1022.8 - -
31/08:10pm 19.1 17.0 16.1 83 1.8 ENE 22 24 12 13 1022.8 - -
31/07:50pm 19.0 16.7 15.8 82 1.9 ENE 22 26 12 14 1022.9 - -
31/07:40pm 18.9 16.9 15.6 81 2.0 ENE 20 24 11 13 1023.0 - -
31/07:30pm 19.0 17.0 15.6 80 2.0 ENE 20 24 11 13 1023.0 - -
31/07:20pm 19.0 17.0 15.4 79 2.1 ENE 20 24 11 13 1023.0 - -
31/07:10pm 19.0 17.0 15.4 79 2.1 ENE 20 24 11 13 1023.1 - -
31/07:00pm 19.0 17.1 15.3 79 2.2 ENE 19 22 10 12 1023.2 - -
31/06:50pm 19.0 16.9 15.3 79 2.2 ENE 20 24 11 13 1023.2 - -
31/06:40pm 19.1 17.6 15.3 78 2.2 ENE 17 20 9 11 1023.5 - -
31/06:30pm 19.1 17.6 15.3 78 2.2 ENE 17 19 9 10 1023.5 - -
31/06:20pm 19.1 17.6 15.3 78 2.2 ENE 17 19 9 10 1023.6 - -
31/06:10pm 19.1 18.7 15.3 78 2.2 E 11 17 6 9 1023.7 - -
31/06:00pm 19.1 18.3 15.2 78 2.3 ENE 13 19 7 10 1023.4 - -
31/05:50pm 19.2 18.4 15.1 77 2.4 ENE 13 20 7 11 1023.3 - -
31/05:40pm 19.2 17.6 14.9 76 2.5 ENE 17 22 9 12 1023.3 - -
31/05:30pm 19.2 17.1 14.7 75 2.6 ENE 19 24 10 13 1023.3 - -
31/05:20pm 19.2 17.8 14.4 74 2.8 ENE 15 22 8 12 1023.4 - -
31/05:10pm 19.1 17.2 14.2 73 2.8 ENE 17 22 9 12 1023.5 - -
31/05:00pm 19.2 16.9 14.1 72 2.9 ENE 19 22 10 12 1023.5 - -
31/04:50pm 19.3 17.8 14.1 72 3.0 ENE 15 20 8 11 1023.6 - -
31/04:40pm 19.4 18.2 14.1 71 3.1 ENE 13 19 7 10 1023.8 - -
31/04:30pm 19.4 18.7 14.2 72 3.0 ENE 11 17 6 9 1024.0 - -
31/04:20pm 19.6 19.3 14.4 72 3.0 ENE 9 15 5 8 1024.1 - -
31/04:10pm 19.5 19.2 14.4 72 3.0 ENE 9 15 5 8 1024.3 - -
31/04:00pm 19.4 19.0 14.2 72 3.0 ENE 9 13 5 7 1024.4 - -
31/03:50pm 19.3 19.2 13.9 71 3.1 ENE 7 11 4 6 1024.4 - -
31/03:40pm 19.1 18.6 13.7 71 3.1 ENE 9 13 5 7 1024.4 - -
31/03:30pm 19.2 18.6 13.6 70 3.2 ENE 9 13 5 7 1024.4 - -
31/03:20pm 19.3 19.1 13.7 70 3.2 ENE 7 11 4 6 1024.4 - -
31/03:10pm 19.5 19.4 13.8 69 3.3 ENE 7 13 4 7 1024.5 - -
31/03:00pm 19.6 19.4 13.7 68 3.4 ENE 7 11 4 6 1024.6 - -
31/02:50pm 19.6 19.4 13.5 68 3.5 ENE 7 11 4 6 1024.7 - -
31/02:40pm 19.6 19.6 13.5 68 3.5 NE 6 11 3 6 1024.9 - -
31/02:30pm 19.5 19.2 13.4 68 3.5 ENE 7 11 4 6 1025.1 - -
31/02:20pm 19.4 19.2 13.1 67 3.6 ENE 6 9 3 5 1025.4 - -
31/02:10pm 19.5 19.7 13.1 66 3.6 ENE 4 7 2 4 1025.6 - -
31/02:00pm 19.9 20.1 13.2 65 3.8 ENE 4 7 2 4 1025.9 - -
31/01:50pm 19.9 20.2 13.3 65 3.8 ENE 4 7 2 4 1026.1 - -
31/01:40pm 20.1 20.8 13.5 66 3.8 ENE 2 6 1 3 1026.3 - -
31/01:30pm 20.1 20.8 13.5 66 3.8 ENE 2 6 1 3 1026.5 - -
31/01:20pm 20.2 20.9 13.4 65 3.9 ENE 2 4 1 2 1026.7 - -
31/01:10pm 20.3 21.3 13.3 64 4.0 CALM 0 4 0 2 1026.8 - -
31/01:00pm 20.3 21.4 13.4 64 3.9 CALM 0 4 0 2 1026.9 - -
31/12:50pm 20.5 21.6 13.5 64 4.0 CALM 0 4 0 2 1026.9 - -
31/12:40pm 20.5 21.6 13.5 64 4.0 CALM 0 4 0 2 1026.9 - -
31/12:30pm 19.8 20.8 13.3 66 3.7 CALM 0 2 0 1 1027.0 - -
31/12:20pm 19.7 20.6 13.0 65 3.8 CALM 0 0 0 0 1027.3 - -
31/12:10pm 19.7 20.7 13.2 66 3.7 CALM 0 2 0 1 1027.4 - -
31/12:00pm 20.3 21.3 13.1 63 4.1 CALM 0 0 0 0 1027.5 - -
31/11:50am 20.1 21.2 13.4 65 3.8 CALM 0 0 0 0 1027.4 - -
31/11:40am 19.8 20.7 13.0 65 3.9 CALM 0 0 0 0 1027.5 - -
31/11:30am 20.0 20.9 13.0 64 4.0 CALM 0 0 0 0 1027.5 - -
31/11:20am 19.8 20.8 13.1 65 3.8 CALM 0 0 0 0 1027.5 - -
31/11:10am 19.9 20.9 13.1 65 3.9 CALM 0 0 0 0 1027.4 - -
31/11:00am 19.9 20.9 13.1 65 3.9 CALM 0 0 0 0 1027.3 - -
31/10:50am 19.9 20.9 13.2 65 3.8 CALM 0 0 0 0 1027.2 - -
31/10:40am 19.9 20.9 13.3 65 3.8 CALM 0 0 0 0 1027.1 - -
31/10:30am 19.5 20.4 13.0 66 3.7 CALM 0 0 0 0 1027.0 - -
31/10:20am 19.8 20.7 12.8 64 4.0 CALM 0 0 0 0 1026.9 - -
31/10:10am 19.9 20.8 12.9 64 4.0 CALM 0 0 0 0 1026.9 - -
31/10:00am 19.4 20.4 13.2 67 3.5 CALM 0 0 0 0 1026.8 - -
31/09:50am 19.0 20.0 13.2 69 3.3 CALM 0 0 0 0 1026.7 - -
31/09:40am 18.7 19.7 13.3 71 3.1 CALM 0 0 0 0 1026.6 - -
31/09:30am 18.3 19.4 13.4 73 2.8 CALM 0 0 0 0 1026.4 - -
31/09:20am 18.0 19.0 13.3 74 2.7 CALM 0 0 0 0 1026.4 - -
31/09:10am 17.9 18.9 13.2 74 2.6 CALM 0 0 0 0 1026.4 - -
31/09:00am 17.7 18.7 13.2 75 2.5 CALM 0 0 0 0 1026.3 - -
31/08:50am 17.5 18.5 13.3 76 2.4 CALM 0 0 0 0 1026.2 - -
31/08:40am 17.3 18.3 13.2 77 2.3 CALM 0 0 0 0 1026.1 - -
31/08:30am 17.2 18.2 13.2 77 2.2 CALM 0 0 0 0 1026.0 - -
31/08:10am 17.1 18.1 13.2 78 2.2 CALM 0 0 0 0 1025.8 - -
31/08:00am 17.1 18.1 13.1 77 2.2 CALM 0 0 0 0 1025.9 - -
31/07:50am 17.0 18.0 13.1 78 2.2 CALM 0 0 0 0 1025.9 - -
31/07:40am 16.9 17.8 13.0 78 2.2 CALM 0 2 0 1 1025.8 - -
31/07:30am 16.9 17.9 13.1 78 2.1 CALM 0 2 0 1 1025.7 - -
31/07:20am 16.9 17.9 13.1 78 2.1 CALM 0 2 0 1 1025.7 - -
31/07:10am 16.7 17.6 13.0 79 2.1 CALM 0 0 0 0 1025.6 - -
31/07:00am 16.6 17.5 12.9 79 2.1 CALM 0 0 0 0 1025.6 - -
31/06:50am 16.7 17.6 13.0 79 2.1 CALM 0 0 0 0 1025.6 - -
31/03:20am 17.0 17.5 14.0 82 1.7 WNW 4 6 2 3 1026.2 - -
31/03:10am 17.0 17.2 14.2 83 1.6 WNW 6 7 3 4 1026.1 - -
31/03:00am 17.0 17.2 14.2 83 1.6 WNW 6 7 3 4 1026.2 - -
31/02:50am 17.0 17.2 14.2 83 1.6 WNW 6 7 3 4 1026.2 - -
31/02:40am 17.0 17.2 14.3 84 1.5 WNW 6 7 3 4 1026.2 - -
31/02:30am 17.1 17.3 14.3 83 1.6 WNW 6 7 3 4 1026.1 - -
31/02:20am 17.1 17.3 14.3 83 1.6 WNW 6 7 3 4 1026.1 - -
31/02:10am 17.1 17.3 14.3 83 1.6 WNW 6 7 3 4 1026.1 - -
31/01:50am 17.0 17.5 13.9 82 1.8 WNW 4 6 2 3 1026.2 - -
31/01:40am 16.9 17.3 13.7 81 1.8 WNW 4 6 2 3 1026.3 - -
31/01:30am 17.0 17.4 13.8 81 1.8 W 4 6 2 3 1026.3 - -
31/01:20am 17.1 17.5 13.8 81 1.9 W 4 6 2 3 1026.3 - -
31/01:10am 17.1 17.9 13.7 80 1.9 W 2 4 1 2 1026.4 - -
31/01:00am 17.1 17.9 13.7 80 1.9 W 2 4 1 2 1026.4 - -
31/12:50am 17.1 17.9 13.6 80 2.0 WSW 2 4 1 2 1026.4 - -
31/12:40am 17.0 17.8 13.6 80 1.9 W 2 4 1 2 1026.4 - -
31/12:30am 17.2 18.0 13.7 80 2.0 W 2 2 1 1 1026.5 - -
31/12:20am 17.3 18.5 13.8 80 2.0 CALM 0 2 0 1 1026.5 - -
31/12:10am 17.0 18.0 13.3 79 2.1 CALM 0 2 0 1 1026.5 - -
31/12:00am 16.9 17.9 13.1 78 2.1 CALM 0 2 0 1 1026.6 - -
 
Date/Time
EDT
Temp
°C
App
Temp
°C
Dew
Point
Rel
Hum
%
Delta-T
°C
Wind Press
QNH
hPa
Press
MSL
hPa
Rain
since 9 am
mm
Dir
 
Spd
km/h
Gust
km/h
Spd
kts
Gust
kts
30/11:50pm 16.8 17.8 13.2 79 2.0 CALM 0 2 0 1 1026.6 - -
30/11:40pm 16.9 17.9 13.3 79 2.0 CALM 0 2 0 1 1026.6 - -
30/11:30pm 17.0 18.1 13.5 80 2.0 CALM 0 2 0 1 1026.5 - -
30/11:20pm 17.2 18.4 13.7 80 2.0 CALM 0 2 0 1 1026.6 - -
30/11:10pm 17.3 18.5 13.7 79 2.0 CALM 0 2 0 1 1026.6 - -
30/11:00pm 17.3 18.5 13.8 80 2.0 CALM 0 2 0 1 1026.5 - -
30/10:50pm 17.3 18.1 13.8 80 2.0 SSW 2 4 1 2 1026.5 - -
30/10:40pm 17.3 17.7 13.8 80 2.0 SSW 4 6 2 3 1026.4 - -
30/10:30pm 17.4 17.2 13.7 79 2.1 SSW 7 9 4 5 1026.4 - -
30/10:20pm 17.4 16.8 13.6 78 2.2 SSW 9 11 5 6 1026.4 - -
30/10:10pm 17.5 16.9 13.4 77 2.3 SSW 9 11 5 6 1026.3 - -
30/10:00pm 17.5 17.4 13.2 76 2.4 SSW 6 9 3 5 1026.2 - -
30/09:50pm 17.6 17.8 13.2 75 2.5 SSW 4 6 2 3 1026.1 - -
30/09:40pm 17.5 18.2 13.3 76 2.4 SSW 2 4 1 2 1026.0 - -
30/09:30pm 17.5 18.1 13.2 76 2.4 SSW 2 4 1 2 1025.9 - -
30/09:20pm 17.4 18.0 13.1 76 2.4 SSW 2 4 1 2 1025.8 - -
30/09:10pm 17.4 18.0 13.2 76 2.4 SSW 2 2 1 1 1025.7 - -
30/09:00pm 17.3 18.3 13.2 77 2.3 CALM 0 0 0 0 1025.6 - -
30/08:50pm 17.3 18.3 13.1 76 2.4 CALM 0 0 0 0 1025.4 - -
30/08:40pm 17.3 18.2 13.0 76 2.4 CALM 0 0 0 0 1025.3 - -
30/08:30pm 17.3 18.2 13.0 76 2.4 CALM 0 0 0 0 1025.2 - -
30/08:20pm 17.5 18.4 13.0 75 2.5 CALM 0 2 0 1 1025.1 - -
30/08:10pm 17.6 18.2 13.1 75 2.5 SSW 2 4 1 2 1025.0 - -
30/08:00pm 17.6 17.4 13.1 75 2.5 SSW 6 7 3 4 1024.9 - -
30/07:50pm 17.6 17.4 13.0 74 2.6 S 6 7 3 4 1024.8 - -
30/07:40pm 17.6 17.2 12.9 74 2.6 S 7 9 4 5 1024.7 - -
30/07:30pm 17.5 17.0 12.8 74 2.6 S 7 9 4 5 1024.5 - -
30/07:20pm 17.5 16.6 12.7 73 2.7 S 9 13 5 7 1024.4 - -
30/07:10pm 17.6 16.3 12.6 72 2.8 S 11 13 6 7 1024.3 - -
30/07:00pm 17.6 16.7 12.6 72 2.8 S 9 13 5 7 1024.1 - -
30/06:50pm 17.7 16.8 12.6 72 2.8 S 9 11 5 6 1024.0 - -
30/06:40pm 17.7 16.8 12.5 71 2.9 S 9 11 5 6 1023.9 - -
30/06:30pm 17.7 16.8 12.5 71 2.9 S 9 13 5 7 1023.8 - -
30/06:20pm 17.8 16.0 12.1 69 3.1 S 13 15 7 8 1023.7 - -
30/06:10pm 17.8 15.5 11.7 67 3.3 S 15 17 8 9 1023.7 - -
30/06:00pm 17.8 16.3 11.8 68 3.3 S 11 13 6 7 1023.7 - -
30/05:40pm 17.8 16.6 11.7 67 3.3 S 9 11 5 6 1023.6 - -
30/05:30pm 17.8 17.2 12.4 70 3.0 S 7 9 4 5 1023.6 - -
30/05:20pm 17.7 17.1 12.2 70 3.0 S 7 9 4 5 1023.6 - -
30/05:10pm 17.8 17.3 11.9 68 3.2 SSW 6 7 3 4 1023.6 - -
30/05:00pm 17.7 17.0 11.9 69 3.2 SSW 7 9 4 5 1023.6 - -
30/04:50pm 17.7 16.6 11.9 69 3.2 SSW 9 13 5 7 1023.7 - -
30/04:40pm 17.9 16.8 12.0 68 3.3 SSW 9 11 5 6 1023.7 - -
30/04:20pm 18.0 16.5 11.9 67 3.4 SSW 11 13 6 7 1023.7 - -
30/04:10pm 18.4 17.0 12.1 66 3.5 SSW 11 13 6 7 1023.7 - -
30/04:00pm 18.5 17.6 12.5 68 3.3 SSW 9 13 5 7 1023.6 - -
30/03:50pm 18.5 18.0 12.6 68 3.3 SW 7 9 4 5 1023.5 - -
30/03:40pm 18.6 18.2 12.9 69 3.2 SW 7 9 4 5 1023.5 - -
30/03:30pm 18.7 18.2 12.8 68 3.3 SW 7 9 4 5 1023.6 - -
30/03:20pm 18.7 17.9 12.8 68 3.3 SW 9 11 5 6 1023.6 - -
30/03:10pm 18.8 18.4 13.0 69 3.3 SW 7 9 4 5 1023.6 - -
30/03:00pm 18.9 18.5 13.0 68 3.3 WSW 7 9 4 5 1023.7 - -
30/02:50pm 18.9 18.5 12.9 68 3.4 WSW 7 9 4 5 1023.8 - -
30/02:40pm 18.9 18.6 12.8 67 3.4 WSW 6 9 3 5 1023.9 - -
30/02:30pm 18.9 18.4 12.8 67 3.4 WSW 7 7 4 4 1024.0 - -
30/02:20pm 18.9 18.4 12.8 67 3.4 WSW 7 9 4 5 1024.1 - -
30/02:10pm 18.9 18.4 12.8 67 3.4 WSW 7 9 4 5 1024.1 - -
30/02:00pm 18.8 18.4 12.9 68 3.3 WSW 7 9 4 5 1024.1 - -
30/01:50pm 18.5 18.1 12.9 70 3.1 W 7 9 4 5 1024.2 - -
30/01:40pm 18.2 17.7 12.8 71 3.0 W 7 11 4 6 1024.2 - -
30/01:30pm 18.1 17.2 12.6 70 3.1 WNW 9 13 5 7 1024.2 - -
30/01:20pm 18.3 17.0 12.6 69 3.2 WNW 11 13 6 7 1024.2 - -
30/01:10pm 18.5 17.3 12.7 69 3.2 WNW 11 13 6 7 1024.2 - -
30/01:00pm 18.7 17.5 12.9 69 3.3 WNW 11 13 6 7 1024.3 - -
30/12:50pm 18.7 17.6 13.1 70 3.2 WNW 11 13 6 7 1024.4 - -
30/12:40pm 18.6 17.5 13.0 70 3.2 W 11 13 6 7 1024.4 - -
30/12:30pm 18.6 17.5 13.0 70 3.2 WNW 11 15 6 8 1024.5 - -
30/12:20pm 18.7 17.2 13.1 70 3.2 WNW 13 15 7 8 1024.6 - -
30/12:10pm 18.8 17.7 13.2 70 3.2 WNW 11 15 6 8 1024.6 - -
30/12:00pm 19.1 17.7 13.4 69 3.2 W 13 15 7 8 1024.6 - -
30/11:50am 19.2 17.8 13.5 69 3.3 W 13 15 7 8 1024.6 - -
30/11:40am 19.3 17.9 13.5 69 3.3 W 13 15 7 8 1024.6 - -
30/11:30am 19.1 17.7 13.5 70 3.2 W 13 15 7 8 1024.6 - -
30/11:20am 19.1 18.1 13.5 70 3.2 W 11 15 6 8 1024.5 - -
30/11:10am 19.0 17.6 13.5 70 3.1 WNW 13 17 7 9 1024.5 - -
30/11:00am 19.1 17.7 13.5 70 3.2 WNW 13 15 7 8 1024.3 - -
30/10:50am 19.1 17.7 13.5 70 3.2 WNW 13 15 7 8 1024.2 - -
30/10:40am 19.1 17.7 13.4 69 3.2 WNW 13 15 7 8 1024.2 - -
30/10:30am 19.0 17.6 13.4 70 3.2 WNW 13 15 7 8 1024.1 - -
30/10:20am 18.9 17.4 13.2 69 3.2 WNW 13 17 7 9 1024.0 - -
30/10:10am 18.8 17.3 13.2 70 3.2 WNW 13 15 7 8 1024.0 - -
30/10:00am 18.7 17.2 13.2 70 3.1 WNW 13 15 7 8 1023.9 - -
30/09:50am 18.6 17.2 13.4 72 3.0 WNW 13 15 7 8 1023.7 - -
30/09:40am 18.5 17.5 13.5 72 2.8 WNW 11 13 6 7 1023.6 - -
30/09:30am 18.4 17.5 13.7 74 2.7 WNW 11 15 6 8 1023.5 - -
30/09:20am 18.1 17.2 13.6 75 2.6 WNW 11 13 6 7 1023.5 - -
30/09:10am 17.9 16.9 13.5 75 2.5 WNW 11 13 6 7 1023.4 - -
30/09:00am 17.6 16.2 13.5 77 2.3 WNW 13 15 7 8 1023.3 - -
30/08:50am 17.2 15.4 13.4 78 2.1 NW 15 17 8 9 1023.3 - -
30/08:40am 16.9 15.5 13.3 79 2.0 NW 13 15 7 8 1023.2 - -
30/08:30am 16.6 15.1 13.1 80 2.0 NW 13 15 7 8 1023.1 - -
30/08:20am 16.5 15.4 13.1 80 1.9 NW 11 13 6 7 1023.1 - -
30/08:10am 16.3 15.1 12.9 80 1.9 NW 11 13 6 7 1023.0 - -
30/08:00am 16.3 15.1 12.9 80 1.9 NW 11 13 6 7 1022.9 - -
30/07:50am 16.3 15.1 12.9 80 1.9 WNW 11 15 6 8 1022.8 - -
30/07:40am 16.3 15.1 12.9 80 1.9 WNW 11 13 6 7 1022.6 - -
30/07:30am 16.4 15.3 13.1 81 1.8 NW 11 15 6 8 1022.5 - -
30/07:20am 16.4 14.9 13.1 81 1.8 NW 13 15 7 8 1022.5 - -
30/07:10am 16.4 14.9 13.2 81 1.8 WNW 13 15 7 8 1022.4 - -
30/07:00am 16.4 15.4 13.3 82 1.7 WNW 11 15 6 8 1022.4 - -
30/06:50am 16.4 15.0 13.3 82 1.7 WNW 13 15 7 8 1022.4 - -
30/06:40am 16.4 15.0 13.3 82 1.7 WNW 13 15 7 8 1022.4 - -
30/06:30am 16.4 15.4 13.3 82 1.7 WNW 11 13 6 7 1022.3 - -
30/06:20am 16.4 15.0 13.3 82 1.7 WNW 13 15 7 8 1022.4 - -
30/06:10am 16.5 15.0 13.2 81 1.8 WNW 13 15 7 8 1022.5 - -
30/06:00am 16.5 15.4 13.1 80 1.9 WNW 11 15 6 8 1022.5 - -
30/05:50am 16.7 15.6 13.0 79 2.1 WNW 11 15 6 8 1022.5 - -
30/05:40am 16.8 15.6 12.8 77 2.2 WNW 11 13 6 7 1022.5 - -
30/05:30am 16.7 15.4 12.4 76 2.4 WNW 11 13 6 7 1022.5 - -
30/05:20am 16.7 15.4 12.4 76 2.4 WNW 11 13 6 7 1022.4 - -
30/05:10am 16.8 15.5 12.4 75 2.4 WNW 11 13 6 7 1022.4 - -
30/05:00am 16.8 15.8 12.3 75 2.5 WNW 9 11 5 6 1022.5 - -
30/04:50am 16.8 15.8 12.2 74 2.5 WNW 9 13 5 7 1022.6 - -
30/04:40am 16.9 15.5 12.2 74 2.6 WNW 11 13 6 7 1022.7 - -
30/04:30am 16.7 15.2 11.9 73 2.6 WNW 11 13 6 7 1022.7 - -
30/04:20am 16.7 15.1 11.7 72 2.7 WNW 11 13 6 7 1022.8 - -
30/04:10am 16.6 15.0 11.7 73 2.7 WNW 11 13 6 7 1022.9 - -
30/04:00am 16.6 15.4 11.6 72 2.7 WNW 9 13 5 7 1022.9 - -
30/03:50am 16.6 15.4 11.7 73 2.7 WNW 9 11 5 6 1023.0 - -
30/03:40am 16.6 15.8 11.6 72 2.7 W 7 9 4 5 1023.1 - -
30/03:30am 16.5 15.6 11.5 72 2.7 WNW 7 9 4 5 1023.2 - -
30/03:10am 16.5 15.8 11.4 72 2.8 WNW 6 7 3 4 1023.2 - -
30/03:00am 16.5 15.6 11.4 72 2.8 WNW 7 9 4 5 1023.3 - -
30/02:50am 16.6 15.9 11.4 71 2.8 W 6 7 3 4 1023.3 - -
30/02:40am 16.6 15.9 11.3 71 2.9 W 6 7 3 4 1023.3 - -
30/02:30am 16.7 16.0 11.5 71 2.8 W 6 7 3 4 1023.4 - -
30/02:20am 16.8 16.1 11.5 71 2.9 W 6 9 3 5 1023.4 - -
30/02:10am 16.8 16.1 11.5 71 2.9 W 6 7 3 4 1023.4 - -
30/02:00am 16.9 16.1 11.6 71 2.9 W 7 9 4 5 1023.4 - -
30/01:50am 17.0 16.2 11.7 71 2.9 W 7 9 4 5 1023.5 - -
30/01:40am 16.9 16.1 11.6 71 2.9 W 7 9 4 5 1023.5 - -
30/01:30am 16.9 16.1 11.6 71 2.9 W 7 9 4 5 1023.5 - -
30/01:20am 16.9 16.0 11.5 70 2.9 WSW 7 9 4 5 1023.5 - -
30/01:10am 16.9 16.0 11.5 70 2.9 WSW 7 9 4 5 1023.5 - -
30/01:00am 16.9 16.2 11.5 70 2.9 WSW 6 7 3 4 1023.5 - -
30/12:50am 17.0 16.3 11.5 70 3.0 WSW 6 7 3 4 1023.6 - -
30/12:40am 17.1 16.4 11.3 68 3.1 WSW 6 7 3 4 1023.7 - -
30/12:30am 17.5 16.6 11.2 66 3.4 WSW 7 9 4 5 1023.7 - -
30/12:20am 18.2 17.7 11.9 66 3.5 WSW 6 7 3 4 1023.8 - -
30/12:10am 17.5 16.8 11.9 69 3.1 WSW 7 9 4 5 1023.8 - -
30/12:00am 17.5 16.8 11.5 68 3.3 WSW 6 7 3 4 1023.9 - -
 
Date/Time
EDT
Temp
°C
App
Temp
°C
Dew
Point
Rel
Hum
%
Delta-T
°C
Wind Press
QNH
hPa
Press
MSL
hPa
Rain
since 9 am
mm
Dir
 
Spd
km/h
Gust
km/h
Spd
kts
Gust
kts
29/11:50pm 17.6 17.2 11.1 65 3.5 WSW 4 7 2 4 1023.8 - -
29/11:40pm 17.3 17.0 11.3 68 3.3 SW 4 6 2 3 1023.7 - -
29/11:30pm 16.9 16.5 11.0 68 3.2 SW 4 6 2 3 1023.8 - -
29/11:20pm 17.0 16.6 11.1 68 3.2 SW 4 6 2 3 1023.8 - -
29/11:10pm 17.0 16.6 11.1 68 3.2 SW 4 6 2 3 1023.8 - -
29/11:00pm 17.2 16.8 11.2 68 3.2 SW 4 6 2 3 1023.8 - -
29/10:50pm 17.4 17.1 11.3 67 3.3 SW 4 7 2 4 1023.7 - -
29/10:40pm 17.6 16.7 11.3 66 3.4 SSW 7 9 4 5 1023.6 - -
29/10:30pm 17.6 16.6 11.0 65 3.6 SSW 7 9 4 5 1023.4 - -
29/10:20pm 17.6 16.8 10.9 65 3.6 SSW 6 7 3 4 1023.2 - -
29/10:10pm 17.6 16.5 10.7 64 3.7 SSW 7 9 4 5 1023.1 - -
29/10:00pm 17.6 16.5 10.7 64 3.7 SSW 7 9 4 5 1022.9 - -
29/09:50pm 17.5 16.0 10.7 64 3.6 SSW 9 9 5 5 1022.8 - -
29/09:40pm 17.5 16.1 11.0 65 3.5 SSW 9 13 5 7 1022.7 - -
29/09:30pm 17.5 16.6 11.3 67 3.4 SSW 7 11 4 6 1022.5 - -
29/09:20pm 17.5 16.2 11.1 66 3.5 SSW 9 11 5 6 1022.4 - -
29/09:10pm 17.5 16.5 11.0 65 3.5 SSW 7 11 4 6 1022.2 - -
29/09:00pm 17.5 16.1 11.0 65 3.5 SSW 9 13 5 7 1022.1 - -
29/08:50pm 17.5 16.2 11.3 67 3.4 SSW 9 13 5 7 1021.9 - -
29/08:40pm 17.5 16.6 11.5 68 3.3 SSW 7 11 4 6 1021.8 - -
29/08:30pm 17.5 16.7 11.6 68 3.2 SSW 7 13 4 7 1021.7 - -
29/08:20pm 17.5 16.4 11.8 69 3.1 SSW 9 15 5 8 1021.6 - -
29/08:10pm 17.6 16.1 11.8 69 3.2 SSW 11 15 6 8 1021.5 - -
29/08:00pm 17.5 15.9 11.7 69 3.2 SSW 11 15 6 8 1021.3 - -
29/07:50pm 17.5 15.6 11.7 69 3.2 S 13 17 7 9 1021.3 - -
29/07:40pm 17.5 15.6 11.8 69 3.1 SSW 13 17 7 9 1021.2 - -
29/07:30pm 17.5 15.6 11.9 69 3.1 SSW 13 17 7 9 1021.2 - -
29/07:20pm 17.6 15.7 11.7 68 3.2 SSW 13 17 7 9 1021.1 - -
29/07:10pm 17.8 16.5 11.4 66 3.5 SSW 9 13 5 7 1021.1 - -
29/07:00pm 17.8 16.5 11.4 66 3.5 SSW 9 11 5 6 1021.0 - -
29/06:50pm 17.8 16.9 11.4 66 3.5 SSW 7 9 4 5 1021.0 - -
29/06:40pm 17.8 16.9 11.4 66 3.5 SSW 7 11 4 6 1021.0 - -
29/06:30pm 18.0 17.1 11.2 64 3.7 SSW 7 9 4 5 1020.9 - -
29/06:20pm 18.0 16.7 11.1 64 3.7 SSW 9 11 5 6 1020.9 - -
29/06:10pm 17.9 16.5 10.9 63 3.8 SSW 9 11 5 6 1020.9 - -
29/06:00pm 17.8 16.4 10.9 64 3.7 SSW 9 13 5 7 1020.9 - -
29/05:50pm 17.6 16.2 10.8 64 3.7 SSW 9 13 5 7 1020.9 - -
29/05:40pm 17.7 16.2 10.7 63 3.8 SSW 9 11 5 6 1020.8 - -
29/05:30pm 17.6 16.2 11.0 65 3.6 SSW 9 13 5 7 1020.8 - -
29/05:20pm 17.6 16.8 11.6 68 3.3 SSW 7 11 4 6 1020.7 - -
29/05:10pm 17.7 16.9 11.6 67 3.3 SSW 7 9 4 5 1020.8 - -
29/05:00pm 18.0 17.1 11.5 66 3.6 SSW 7 11 4 6 1020.8 - -
29/04:50pm 18.2 17.0 11.5 65 3.7 SSW 9 13 5 7 1020.8 - -
29/03:40pm 17.8 17.1 11.9 68 3.2 WSW 7 13 4 7 1021.0 - -
29/03:30pm 17.9 17.2 12.1 69 3.2 W 7 11 4 6 1021.1 - -
29/02:20pm 17.6 15.9 12.5 72 2.8 W 13 15 7 8 1021.7 - -
29/02:10pm 17.6 15.5 12.4 71 2.9 W 15 17 8 9 1021.8 - -
29/02:00pm 17.6 15.5 12.3 71 2.9 WNW 15 17 8 9 1021.8 - -
29/01:50pm 17.7 15.1 12.1 69 3.1 WNW 17 19 9 10 1021.9 - -
29/01:40pm 17.7 15.2 12.2 70 3.0 WNW 17 19 9 10 1021.9 - -
29/01:30pm 17.8 15.7 12.3 70 3.0 WNW 15 19 8 10 1022.0 - -
29/01:20pm 17.8 15.3 12.2 70 3.1 WNW 17 19 9 10 1022.1 - -
29/01:10pm 17.9 15.3 12.0 68 3.3 WNW 17 19 9 10 1022.0 - -
29/01:00pm 18.3 16.1 12.2 67 3.4 WNW 15 19 8 10 1022.1 - -
29/12:50pm 18.7 16.6 12.4 67 3.5 WNW 15 17 8 9 1022.1 - -
29/12:40pm 18.6 16.4 12.1 66 3.6 WNW 15 17 8 9 1022.2 - -
29/12:30pm 18.6 16.8 12.0 65 3.7 WNW 13 19 7 10 1022.2 - -
29/12:20pm 18.6 16.8 12.0 65 3.7 WNW 13 15 7 8 1022.2 - -
29/12:10pm 18.5 16.6 11.9 65 3.6 WNW 13 15 7 8 1022.2 - -
29/12:00pm 18.7 16.9 12.0 65 3.7 WNW 13 17 7 9 1022.1 - -
29/11:50am 18.6 17.1 12.0 65 3.7 WNW 11 15 6 8 1022.2 - -
29/11:40am 18.7 17.2 12.0 65 3.7 WNW 11 13 6 7 1022.4 - -
29/11:30am 18.8 17.7 12.1 65 3.7 WNW 9 13 5 7 1022.5 - -
29/11:20am 18.8 17.8 12.2 65 3.7 WNW 9 13 5 7 1022.5 - -
29/11:10am 18.8 17.8 12.3 66 3.6 WNW 9 13 5 7 1022.6 - -
29/11:00am 18.8 18.2 12.3 66 3.6 W 7 11 4 6 1022.5 - -
29/10:50am 18.9 18.3 12.3 65 3.7 W 7 11 4 6 1022.6 - -
29/10:40am 18.7 18.1 12.2 66 3.6 W 7 11 4 6 1022.6 - -
29/10:30am 18.5 17.9 12.3 67 3.4 W 7 11 4 6 1022.4 - -
29/10:20am 18.4 17.8 12.4 68 3.3 W 7 9 4 5 1022.4 - -
29/10:10am 18.2 17.6 12.4 69 3.2 WSW 7 11 4 6 1022.4 - -

Other Formats:

Comma delimited format used in spreadsheet applications
http://www.bom.gov.au/fwo/IDV60801/IDV60801.55039.axf

JavaScript Object Notation format (JSON) in row-major order
http://www.bom.gov.au/fwo/IDV60801/IDV60801.55039.json